sensor_id;sensor_type;location;lat;lon;timestamp;P1;durP1;ratioP1;P2;durP2;ratioP2
8066;SDS011;4076;48.076;9.118;2022-12-24T00:00:30;2.00;;;1.50;;
8066;SDS011;4076;48.076;9.118;2022-12-24T00:02:56;3.17;;;2.03;;
8066;SDS011;4076;48.076;9.118;2022-12-24T00:05:21;3.47;;;1.60;;
8066;SDS011;4076;48.076;9.118;2022-12-24T00:07:47;3.10;;;1.53;;
8066;SDS011;4076;48.076;9.118;2022-12-24T00:10:12;3.50;;;2.30;;
8066;SDS011;4076;48.076;9.118;2022-12-24T00:12:38;2.70;;;1.83;;
8066;SDS011;4076;48.076;9.118;2022-12-24T00:15:04;5.93;;;2.13;;
8066;SDS011;4076;48.076;9.118;2022-12-24T00:17:31;6.43;;;2.23;;
8066;SDS011;4076;48.076;9.118;2022-12-24T00:19:56;1.70;;;1.10;;
8066;SDS011;4076;48.076;9.118;2022-12-24T00:22:22;1.60;;;1.00;;
8066;SDS011;4076;48.076;9.118;2022-12-24T00:24:48;1.60;;;0.90;;
8066;SDS011;4076;48.076;9.118;2022-12-24T00:27:13;1.83;;;1.43;;
8066;SDS011;4076;48.076;9.118;2022-12-24T00:29:39;4.33;;;1.00;;
8066;SDS011;4076;48.076;9.118;2022-12-24T00:32:04;3.30;;;1.00;;
8066;SDS011;4076;48.076;9.118;2022-12-24T00:34:34;1.93;;;1.30;;
8066;SDS011;4076;48.076;9.118;2022-12-24T00:37:00;3.50;;;1.30;;
8066;SDS011;4076;48.076;9.118;2022-12-24T00:39:26;2.57;;;1.40;;
8066;SDS011;4076;48.076;9.118;2022-12-24T00:41:51;1.90;;;1.20;;
8066;SDS011;4076;48.076;9.118;2022-12-24T00:44:17;2.10;;;1.30;;
8066;SDS011;4076;48.076;9.118;2022-12-24T00:46:42;3.20;;;0.90;;
8066;SDS011;4076;48.076;9.118;2022-12-24T00:49:08;2.40;;;1.50;;
8066;SDS011;4076;48.076;9.118;2022-12-24T00:51:36;3.27;;;1.70;;
8066;SDS011;4076;48.076;9.118;2022-12-24T00:54:02;1.70;;;1.30;;
8066;SDS011;4076;48.076;9.118;2022-12-24T00:56:28;2.47;;;1.57;;
8066;SDS011;4076;48.076;9.118;2022-12-24T00:58:54;1.67;;;1.17;;
8066;SDS011;4076;48.076;9.118;2022-12-24T01:01:19;3.20;;;1.30;;
8066;SDS011;4076;48.076;9.118;2022-12-24T01:03:46;1.53;;;0.90;;
8066;SDS011;4076;48.076;9.118;2022-12-24T01:06:13;1.70;;;1.03;;
8066;SDS011;4076;48.076;9.118;2022-12-24T01:08:41;1.50;;;1.10;;
8066;SDS011;4076;48.076;9.118;2022-12-24T01:11:07;1.60;;;0.90;;
8066;SDS011;4076;48.076;9.118;2022-12-24T01:13:34;1.90;;;1.17;;
8066;SDS011;4076;48.076;9.118;2022-12-24T01:16:00;2.37;;;1.10;;
8066;SDS011;4076;48.076;9.118;2022-12-24T01:18:26;2.47;;;1.10;;
8066;SDS011;4076;48.076;9.118;2022-12-24T01:20:59;2.33;;;1.20;;
8066;SDS011;4076;48.076;9.118;2022-12-24T01:23:26;1.80;;;1.00;;
8066;SDS011;4076;48.076;9.118;2022-12-24T01:25:52;1.80;;;1.23;;
8066;SDS011;4076;48.076;9.118;2022-12-24T01:28:19;2.20;;;1.00;;
8066;SDS011;4076;48.076;9.118;2022-12-24T01:30:45;1.50;;;0.90;;
8066;SDS011;4076;48.076;9.118;2022-12-24T01:33:11;2.60;;;1.30;;
8066;SDS011;4076;48.076;9.118;2022-12-24T01:35:40;1.73;;;0.90;;
8066;SDS011;4076;48.076;9.118;2022-12-24T01:38:07;3.93;;;1.30;;
8066;SDS011;4076;48.076;9.118;2022-12-24T01:40:33;1.90;;;1.00;;
8066;SDS011;4076;48.076;9.118;2022-12-24T01:43:18;1.90;;;1.03;;
8066;SDS011;4076;48.076;9.118;2022-12-24T01:45:55;1.93;;;1.10;;
8066;SDS011;4076;48.076;9.118;2022-12-24T01:48:41;1.60;;;1.00;;
8066;SDS011;4076;48.076;9.118;2022-12-24T01:53:39;2.13;;;1.03;;
8066;SDS011;4076;48.076;9.118;2022-12-24T01:56:08;2.40;;;1.20;;
8066;SDS011;4076;48.076;9.118;2022-12-24T01:58:35;2.10;;;1.40;;
8066;SDS011;4076;48.076;9.118;2022-12-24T02:01:01;3.73;;;1.10;;
8066;SDS011;4076;48.076;9.118;2022-12-24T02:03:28;2.43;;;1.50;;
8066;SDS011;4076;48.076;9.118;2022-12-24T02:05:54;2.87;;;1.20;;
8066;SDS011;4076;48.076;9.118;2022-12-24T02:08:22;1.70;;;1.07;;
8066;SDS011;4076;48.076;9.118;2022-12-24T02:10:48;1.70;;;1.50;;
8066;SDS011;4076;48.076;9.118;2022-12-24T02:13:15;3.27;;;1.30;;
8066;SDS011;4076;48.076;9.118;2022-12-24T02:15:49;2.93;;;1.30;;
8066;SDS011;4076;48.076;9.118;2022-12-24T02:21:16;2.83;;;1.20;;
8066;SDS011;4076;48.076;9.118;2022-12-24T02:26:53;1.70;;;1.10;;
8066;SDS011;4076;48.076;9.118;2022-12-24T02:32:21;2.67;;;1.00;;
8066;SDS011;4076;48.076;9.118;2022-12-24T02:34:59;1.77;;;1.07;;
8066;SDS011;4076;48.076;9.118;2022-12-24T02:38:00;6.40;;;2.63;;
8066;SDS011;4076;48.076;9.118;2022-12-24T02:40:56;1.80;;;1.10;;
8066;SDS011;4076;48.076;9.118;2022-12-24T02:43:26;1.80;;;1.00;;
8066;SDS011;4076;48.076;9.118;2022-12-24T02:45:58;2.00;;;1.00;;
8066;SDS011;4076;48.076;9.118;2022-12-24T02:48:27;2.87;;;1.40;;
8066;SDS011;4076;48.076;9.118;2022-12-24T02:50:56;3.17;;;1.07;;
8066;SDS011;4076;48.076;9.118;2022-12-24T02:53:25;1.60;;;0.90;;
8066;SDS011;4076;48.076;9.118;2022-12-24T03:01:14;2.27;;;1.00;;
8066;SDS011;4076;48.076;9.118;2022-12-24T03:03:57;2.07;;;1.30;;
8066;SDS011;4076;48.076;9.118;2022-12-24T03:09:05;1.80;;;1.30;;
8066;SDS011;4076;48.076;9.118;2022-12-24T03:11:43;2.07;;;1.00;;
8066;SDS011;4076;48.076;9.118;2022-12-24T03:14:13;1.60;;;1.10;;
8066;SDS011;4076;48.076;9.118;2022-12-24T03:16:41;1.80;;;1.23;;
8066;SDS011;4076;48.076;9.118;2022-12-24T03:19:07;1.90;;;1.00;;
8066;SDS011;4076;48.076;9.118;2022-12-24T03:21:34;3.20;;;1.40;;
8066;SDS011;4076;48.076;9.118;2022-12-24T03:24:03;2.87;;;2.30;;
8066;SDS011;4076;48.076;9.118;2022-12-24T03:26:29;2.00;;;1.40;;
8066;SDS011;4076;48.076;9.118;2022-12-24T03:28:56;1.60;;;1.10;;
8066;SDS011;4076;48.076;9.118;2022-12-24T03:31:21;1.50;;;1.00;;
8066;SDS011;4076;48.076;9.118;2022-12-24T03:33:47;1.63;;;1.10;;
8066;SDS011;4076;48.076;9.118;2022-12-24T03:36:14;5.27;;;1.73;;
8066;SDS011;4076;48.076;9.118;2022-12-24T03:38:40;2.40;;;1.13;;
8066;SDS011;4076;48.076;9.118;2022-12-24T03:41:06;3.20;;;1.27;;
8066;SDS011;4076;48.076;9.118;2022-12-24T03:43:31;2.73;;;1.47;;
8066;SDS011;4076;48.076;9.118;2022-12-24T03:45:57;2.10;;;1.27;;
8066;SDS011;4076;48.076;9.118;2022-12-24T03:48:26;3.10;;;1.20;;
8066;SDS011;4076;48.076;9.118;2022-12-24T03:50:52;2.10;;;1.20;;
8066;SDS011;4076;48.076;9.118;2022-12-24T03:53:17;1.80;;;1.20;;
8066;SDS011;4076;48.076;9.118;2022-12-24T03:55:43;3.60;;;1.57;;
8066;SDS011;4076;48.076;9.118;2022-12-24T03:58:08;1.80;;;1.10;;
8066;SDS011;4076;48.076;9.118;2022-12-24T04:00:34;1.93;;;1.20;;
8066;SDS011;4076;48.076;9.118;2022-12-24T04:02:59;1.50;;;1.10;;
8066;SDS011;4076;48.076;9.118;2022-12-24T04:05:25;1.70;;;1.10;;
8066;SDS011;4076;48.076;9.118;2022-12-24T04:07:51;1.60;;;1.30;;
8066;SDS011;4076;48.076;9.118;2022-12-24T04:10:16;1.90;;;1.00;;
8066;SDS011;4076;48.076;9.118;2022-12-24T04:12:42;2.37;;;1.40;;
8066;SDS011;4076;48.076;9.118;2022-12-24T04:15:07;2.57;;;1.70;;
8066;SDS011;4076;48.076;9.118;2022-12-24T04:17:34;1.60;;;1.30;;
8066;SDS011;4076;48.076;9.118;2022-12-24T04:19:59;2.13;;;1.17;;
8066;SDS011;4076;48.076;9.118;2022-12-24T04:22:25;1.50;;;1.00;;
8066;SDS011;4076;48.076;9.118;2022-12-24T04:24:50;1.73;;;1.10;;
8066;SDS011;4076;48.076;9.118;2022-12-24T04:27:16;2.10;;;1.10;;
8066;SDS011;4076;48.076;9.118;2022-12-24T04:29:42;8.13;;;2.10;;
8066;SDS011;4076;48.076;9.118;2022-12-24T04:32:07;1.90;;;1.27;;
8066;SDS011;4076;48.076;9.118;2022-12-24T04:34:34;1.60;;;0.97;;
8066;SDS011;4076;48.076;9.118;2022-12-24T04:37:00;2.20;;;1.20;;
8066;SDS011;4076;48.076;9.118;2022-12-24T04:39:25;1.90;;;1.20;;
8066;SDS011;4076;48.076;9.118;2022-12-24T04:41:51;2.07;;;1.40;;
8066;SDS011;4076;48.076;9.118;2022-12-24T04:44:16;1.47;;;1.07;;
8066;SDS011;4076;48.076;9.118;2022-12-24T04:46:42;3.10;;;1.33;;
8066;SDS011;4076;48.076;9.118;2022-12-24T04:49:07;1.70;;;1.10;;
8066;SDS011;4076;48.076;9.118;2022-12-24T04:51:33;1.70;;;1.10;;
8066;SDS011;4076;48.076;9.118;2022-12-24T04:53:59;2.17;;;1.30;;
8066;SDS011;4076;48.076;9.118;2022-12-24T04:56:26;1.50;;;1.20;;
8066;SDS011;4076;48.076;9.118;2022-12-24T04:58:54;1.50;;;1.00;;
8066;SDS011;4076;48.076;9.118;2022-12-24T05:01:24;1.80;;;1.27;;
8066;SDS011;4076;48.076;9.118;2022-12-24T05:03:52;2.50;;;1.47;;
8066;SDS011;4076;48.076;9.118;2022-12-24T05:06:22;2.70;;;1.50;;
8066;SDS011;4076;48.076;9.118;2022-12-24T05:08:52;3.80;;;1.50;;
8066;SDS011;4076;48.076;9.118;2022-12-24T05:11:19;3.60;;;1.80;;
8066;SDS011;4076;48.076;9.118;2022-12-24T05:13:44;2.70;;;1.90;;
8066;SDS011;4076;48.076;9.118;2022-12-24T05:16:11;4.43;;;2.37;;
8066;SDS011;4076;48.076;9.118;2022-12-24T05:18:37;3.10;;;1.90;;
8066;SDS011;4076;48.076;9.118;2022-12-24T05:21:07;3.10;;;1.80;;
8066;SDS011;4076;48.076;9.118;2022-12-24T05:23:38;2.03;;;1.40;;
8066;SDS011;4076;48.076;9.118;2022-12-24T05:29:04;3.00;;;2.03;;
8066;SDS011;4076;48.076;9.118;2022-12-24T05:31:31;2.37;;;1.93;;
8066;SDS011;4076;48.076;9.118;2022-12-24T05:33:58;2.00;;;1.43;;
8066;SDS011;4076;48.076;9.118;2022-12-24T05:36:24;6.30;;;2.37;;
8066;SDS011;4076;48.076;9.118;2022-12-24T05:38:50;1.70;;;1.30;;
8066;SDS011;4076;48.076;9.118;2022-12-24T05:41:16;2.50;;;1.60;;
8066;SDS011;4076;48.076;9.118;2022-12-24T05:43:42;2.40;;;1.40;;
8066;SDS011;4076;48.076;9.118;2022-12-24T05:46:09;2.33;;;1.57;;
8066;SDS011;4076;48.076;9.118;2022-12-24T05:48:35;1.70;;;1.30;;
8066;SDS011;4076;48.076;9.118;2022-12-24T05:51:05;2.20;;;1.60;;
8066;SDS011;4076;48.076;9.118;2022-12-24T05:53:32;1.90;;;1.30;;
8066;SDS011;4076;48.076;9.118;2022-12-24T05:56:02;1.80;;;1.50;;
8066;SDS011;4076;48.076;9.118;2022-12-24T05:58:29;2.23;;;1.70;;
8066;SDS011;4076;48.076;9.118;2022-12-24T06:00:55;2.10;;;1.57;;
8066;SDS011;4076;48.076;9.118;2022-12-24T06:03:20;3.13;;;2.20;;
8066;SDS011;4076;48.076;9.118;2022-12-24T06:05:46;3.83;;;3.43;;
8066;SDS011;4076;48.076;9.118;2022-12-24T06:08:11;4.50;;;3.50;;
8066;SDS011;4076;48.076;9.118;2022-12-24T06:10:37;4.20;;;3.60;;
8066;SDS011;4076;48.076;9.118;2022-12-24T06:13:02;4.60;;;2.23;;
8066;SDS011;4076;48.076;9.118;2022-12-24T06:15:28;5.80;;;3.03;;
8066;SDS011;4076;48.076;9.118;2022-12-24T06:17:53;4.77;;;3.10;;
8066;SDS011;4076;48.076;9.118;2022-12-24T06:20:19;4.03;;;3.20;;
8066;SDS011;4076;48.076;9.118;2022-12-24T06:22:45;3.80;;;2.90;;
8066;SDS011;4076;48.076;9.118;2022-12-24T06:25:10;4.23;;;3.27;;
8066;SDS011;4076;48.076;9.118;2022-12-24T06:27:36;4.63;;;2.93;;
8066;SDS011;4076;48.076;9.118;2022-12-24T06:30:02;3.53;;;2.70;;
8066;SDS011;4076;48.076;9.118;2022-12-24T06:32:28;3.67;;;2.70;;
8066;SDS011;4076;48.076;9.118;2022-12-24T06:34:53;7.33;;;3.20;;
8066;SDS011;4076;48.076;9.118;2022-12-24T06:37:19;5.80;;;4.47;;
8066;SDS011;4076;48.076;9.118;2022-12-24T06:39:45;4.87;;;4.10;;
8066;SDS011;4076;48.076;9.118;2022-12-24T06:42:11;13.90;;;9.70;;
8066;SDS011;4076;48.076;9.118;2022-12-24T06:44:37;18.80;;;9.70;;
8066;SDS011;4076;48.076;9.118;2022-12-24T06:47:03;16.40;;;10.70;;
8066;SDS011;4076;48.076;9.118;2022-12-24T06:49:28;14.53;;;10.13;;
8066;SDS011;4076;48.076;9.118;2022-12-24T06:51:54;17.67;;;11.47;;
8066;SDS011;4076;48.076;9.118;2022-12-24T06:54:19;16.00;;;10.27;;
8066;SDS011;4076;48.076;9.118;2022-12-24T06:56:45;14.57;;;10.30;;
8066;SDS011;4076;48.076;9.118;2022-12-24T06:59:10;13.03;;;8.40;;
8066;SDS011;4076;48.076;9.118;2022-12-24T07:01:36;11.03;;;8.77;;
8066;SDS011;4076;48.076;9.118;2022-12-24T07:04:01;11.83;;;7.07;;
8066;SDS011;4076;48.076;9.118;2022-12-24T07:06:28;13.97;;;9.27;;
8066;SDS011;4076;48.076;9.118;2022-12-24T07:08:54;8.70;;;7.20;;
8066;SDS011;4076;48.076;9.118;2022-12-24T07:11:19;11.13;;;8.43;;
8066;SDS011;4076;48.076;9.118;2022-12-24T07:13:45;11.30;;;9.23;;
8066;SDS011;4076;48.076;9.118;2022-12-24T07:16:11;10.33;;;8.30;;
8066;SDS011;4076;48.076;9.118;2022-12-24T07:18:37;15.83;;;8.93;;
8066;SDS011;4076;48.076;9.118;2022-12-24T07:21:03;15.07;;;9.17;;
8066;SDS011;4076;48.076;9.118;2022-12-24T07:23:31;10.07;;;7.87;;
8066;SDS011;4076;48.076;9.118;2022-12-24T07:26:01;10.87;;;6.70;;
8066;SDS011;4076;48.076;9.118;2022-12-24T07:28:28;9.53;;;6.53;;
8066;SDS011;4076;48.076;9.118;2022-12-24T07:30:54;18.27;;;13.20;;
8066;SDS011;4076;48.076;9.118;2022-12-24T07:33:20;11.80;;;9.40;;
8066;SDS011;4076;48.076;9.118;2022-12-24T07:35:46;13.37;;;9.83;;
8066;SDS011;4076;48.076;9.118;2022-12-24T07:38:11;13.97;;;8.80;;
8066;SDS011;4076;48.076;9.118;2022-12-24T07:40:37;14.63;;;10.97;;
8066;SDS011;4076;48.076;9.118;2022-12-24T07:43:02;10.47;;;9.33;;
8066;SDS011;4076;48.076;9.118;2022-12-24T07:45:28;15.23;;;10.40;;
8066;SDS011;4076;48.076;9.118;2022-12-24T07:47:53;16.33;;;10.10;;
8066;SDS011;4076;48.076;9.118;2022-12-24T07:50:19;14.93;;;11.27;;
8066;SDS011;4076;48.076;9.118;2022-12-24T07:52:44;11.87;;;9.80;;
8066;SDS011;4076;48.076;9.118;2022-12-24T07:55:10;11.17;;;9.27;;
8066;SDS011;4076;48.076;9.118;2022-12-24T07:57:35;11.07;;;9.30;;
8066;SDS011;4076;48.076;9.118;2022-12-24T08:00:01;9.63;;;7.43;;
8066;SDS011;4076;48.076;9.118;2022-12-24T08:02:27;10.10;;;7.83;;
8066;SDS011;4076;48.076;9.118;2022-12-24T08:04:52;9.00;;;6.30;;
8066;SDS011;4076;48.076;9.118;2022-12-24T08:07:18;7.20;;;6.00;;
8066;SDS011;4076;48.076;9.118;2022-12-24T08:09:43;9.63;;;6.30;;
8066;SDS011;4076;48.076;9.118;2022-12-24T08:12:10;9.40;;;8.00;;
8066;SDS011;4076;48.076;9.118;2022-12-24T08:14:36;14.10;;;10.60;;
8066;SDS011;4076;48.076;9.118;2022-12-24T08:17:01;11.13;;;9.43;;
8066;SDS011;4076;48.076;9.118;2022-12-24T08:19:27;16.77;;;10.97;;
8066;SDS011;4076;48.076;9.118;2022-12-24T08:21:52;10.57;;;8.30;;
8066;SDS011;4076;48.076;9.118;2022-12-24T08:24:18;12.50;;;9.60;;
8066;SDS011;4076;48.076;9.118;2022-12-24T08:26:43;9.90;;;8.13;;
8066;SDS011;4076;48.076;9.118;2022-12-24T08:29:09;11.73;;;8.57;;
8066;SDS011;4076;48.076;9.118;2022-12-24T08:31:35;10.90;;;9.60;;
8066;SDS011;4076;48.076;9.118;2022-12-24T08:34:04;9.97;;;8.97;;
8066;SDS011;4076;48.076;9.118;2022-12-24T08:36:32;15.00;;;10.50;;
8066;SDS011;4076;48.076;9.118;2022-12-24T08:38:58;12.77;;;9.60;;
8066;SDS011;4076;48.076;9.118;2022-12-24T08:41:27;14.33;;;10.30;;
8066;SDS011;4076;48.076;9.118;2022-12-24T08:43:54;20.63;;;15.27;;
8066;SDS011;4076;48.076;9.118;2022-12-24T08:46:19;19.27;;;14.80;;
8066;SDS011;4076;48.076;9.118;2022-12-24T08:48:44;15.33;;;11.73;;
8066;SDS011;4076;48.076;9.118;2022-12-24T08:51:10;11.90;;;10.57;;
8066;SDS011;4076;48.076;9.118;2022-12-24T08:53:37;13.10;;;9.67;;
8066;SDS011;4076;48.076;9.118;2022-12-24T08:56:04;11.50;;;8.67;;
8066;SDS011;4076;48.076;9.118;2022-12-24T08:58:31;12.27;;;10.97;;
8066;SDS011;4076;48.076;9.118;2022-12-24T09:00:57;10.67;;;9.33;;
8066;SDS011;4076;48.076;9.118;2022-12-24T09:03:23;10.03;;;7.80;;
8066;SDS011;4076;48.076;9.118;2022-12-24T09:05:49;9.60;;;8.17;;
8066;SDS011;4076;48.076;9.118;2022-12-24T09:08:15;10.37;;;7.50;;
8066;SDS011;4076;48.076;9.118;2022-12-24T09:10:40;11.80;;;7.20;;
8066;SDS011;4076;48.076;9.118;2022-12-24T09:13:06;8.00;;;7.17;;
8066;SDS011;4076;48.076;9.118;2022-12-24T09:15:31;10.47;;;8.93;;
8066;SDS011;4076;48.076;9.118;2022-12-24T09:17:57;10.13;;;9.10;;
8066;SDS011;4076;48.076;9.118;2022-12-24T09:20:22;8.60;;;7.80;;
8066;SDS011;4076;48.076;9.118;2022-12-24T09:22:48;12.07;;;10.10;;
8066;SDS011;4076;48.076;9.118;2022-12-24T09:25:13;20.70;;;18.30;;
8066;SDS011;4076;48.076;9.118;2022-12-24T09:27:39;19.27;;;16.70;;
8066;SDS011;4076;48.076;9.118;2022-12-24T09:30:05;22.37;;;19.97;;
8066;SDS011;4076;48.076;9.118;2022-12-24T09:32:32;19.20;;;16.40;;
8066;SDS011;4076;48.076;9.118;2022-12-24T09:34:58;20.57;;;18.23;;
8066;SDS011;4076;48.076;9.118;2022-12-24T09:37:24;18.67;;;14.57;;
8066;SDS011;4076;48.076;9.118;2022-12-24T09:39:50;13.93;;;12.17;;
8066;SDS011;4076;48.076;9.118;2022-12-24T09:42:22;16.60;;;11.27;;
8066;SDS011;4076;48.076;9.118;2022-12-24T09:47:40;21.87;;;16.30;;
8066;SDS011;4076;48.076;9.118;2022-12-24T09:52:59;19.60;;;17.60;;
8066;SDS011;4076;48.076;9.118;2022-12-24T09:55:31;25.70;;;15.37;;
8066;SDS011;4076;48.076;9.118;2022-12-24T09:58:01;20.93;;;17.27;;
8066;SDS011;4076;48.076;9.118;2022-12-24T10:00:34;15.97;;;14.30;;
8066;SDS011;4076;48.076;9.118;2022-12-24T10:03:08;15.77;;;12.73;;
8066;SDS011;4076;48.076;9.118;2022-12-24T10:08:47;9.87;;;8.73;;
8066;SDS011;4076;48.076;9.118;2022-12-24T10:11:25;11.13;;;7.87;;
8066;SDS011;4076;48.076;9.118;2022-12-24T10:14:07;4.90;;;3.80;;
8066;SDS011;4076;48.076;9.118;2022-12-24T10:16:51;4.50;;;3.80;;
8066;SDS011;4076;48.076;9.118;2022-12-24T10:24:59;9.30;;;3.93;;
8066;SDS011;4076;48.076;9.118;2022-12-24T10:27:34;5.10;;;3.53;;
8066;SDS011;4076;48.076;9.118;2022-12-24T10:30:11;3.83;;;3.50;;
8066;SDS011;4076;48.076;9.118;2022-12-24T10:32:41;4.67;;;2.67;;
8066;SDS011;4076;48.076;9.118;2022-12-24T10:37:38;6.00;;;3.57;;
8066;SDS011;4076;48.076;9.118;2022-12-24T10:40:08;3.60;;;2.47;;
8066;SDS011;4076;48.076;9.118;2022-12-24T10:42:57;4.83;;;2.70;;
8066;SDS011;4076;48.076;9.118;2022-12-24T10:45:24;4.73;;;2.80;;
8066;SDS011;4076;48.076;9.118;2022-12-24T10:47:54;2.93;;;2.50;;
8066;SDS011;4076;48.076;9.118;2022-12-24T10:52:54;3.07;;;2.30;;
8066;SDS011;4076;48.076;9.118;2022-12-24T10:55:27;6.53;;;3.00;;
8066;SDS011;4076;48.076;9.118;2022-12-24T10:58:26;14.57;;;10.13;;
8066;SDS011;4076;48.076;9.118;2022-12-24T11:00:48;11.87;;;7.70;;
8066;SDS011;4076;48.076;9.118;2022-12-24T11:08:26;45.57;;;33.23;;
8066;SDS011;4076;48.076;9.118;2022-12-24T11:13:29;17.70;;;12.30;;
8066;SDS011;4076;48.076;9.118;2022-12-24T11:18:53;31.53;;;21.60;;
8066;SDS011;4076;48.076;9.118;2022-12-24T11:21:42;18.07;;;13.43;;
8066;SDS011;4076;48.076;9.118;2022-12-24T11:24:12;15.57;;;9.17;;
8066;SDS011;4076;48.076;9.118;2022-12-24T11:26:43;15.47;;;10.90;;
8066;SDS011;4076;48.076;9.118;2022-12-24T11:29:13;24.67;;;18.90;;
8066;SDS011;4076;48.076;9.118;2022-12-24T11:31:43;35.60;;;27.93;;
8066;SDS011;4076;48.076;9.118;2022-12-24T11:34:16;23.77;;;17.27;;
8066;SDS011;4076;48.076;9.118;2022-12-24T11:36:48;11.80;;;7.97;;
8066;SDS011;4076;48.076;9.118;2022-12-24T11:39:21;7.43;;;4.70;;
8066;SDS011;4076;48.076;9.118;2022-12-24T11:41:48;2.93;;;1.80;;
8066;SDS011;4076;48.076;9.118;2022-12-24T11:44:21;3.30;;;1.80;;
8066;SDS011;4076;48.076;9.118;2022-12-24T11:46:52;3.03;;;1.70;;
8066;SDS011;4076;48.076;9.118;2022-12-24T11:49:27;2.60;;;1.80;;
8066;SDS011;4076;48.076;9.118;2022-12-24T11:52:01;3.20;;;2.00;;
8066;SDS011;4076;48.076;9.118;2022-12-24T11:54:58;2.00;;;1.53;;
8066;SDS011;4076;48.076;9.118;2022-12-24T11:57:42;6.03;;;2.37;;
8066;SDS011;4076;48.076;9.118;2022-12-24T12:00:27;5.00;;;2.37;;
8066;SDS011;4076;48.076;9.118;2022-12-24T12:02:53;3.80;;;2.10;;
8066;SDS011;4076;48.076;9.118;2022-12-24T12:05:25;2.80;;;1.77;;
8066;SDS011;4076;48.076;9.118;2022-12-24T12:08:04;4.67;;;3.43;;
8066;SDS011;4076;48.076;9.118;2022-12-24T12:10:38;2.57;;;1.70;;
8066;SDS011;4076;48.076;9.118;2022-12-24T12:13:40;3.37;;;2.13;;
8066;SDS011;4076;48.076;9.118;2022-12-24T12:16:06;10.60;;;3.10;;
8066;SDS011;4076;48.076;9.118;2022-12-24T12:18:50;2.13;;;1.93;;
8066;SDS011;4076;48.076;9.118;2022-12-24T12:21:22;6.30;;;2.80;;
8066;SDS011;4076;48.076;9.118;2022-12-24T12:23:51;3.77;;;2.27;;
8066;SDS011;4076;48.076;9.118;2022-12-24T12:26:24;3.70;;;2.57;;
8066;SDS011;4076;48.076;9.118;2022-12-24T12:31:29;2.10;;;1.53;;
8066;SDS011;4076;48.076;9.118;2022-12-24T12:34:01;5.80;;;1.90;;
8066;SDS011;4076;48.076;9.118;2022-12-24T12:39:32;2.20;;;1.93;;
8066;SDS011;4076;48.076;9.118;2022-12-24T12:50:35;6.70;;;1.90;;
8066;SDS011;4076;48.076;9.118;2022-12-24T13:00:58;2.53;;;2.07;;
8066;SDS011;4076;48.076;9.118;2022-12-24T13:06:19;3.17;;;2.40;;
8066;SDS011;4076;48.076;9.118;2022-12-24T13:11:58;3.20;;;1.93;;
8066;SDS011;4076;48.076;9.118;2022-12-24T13:20:00;2.70;;;1.80;;
8066;SDS011;4076;48.076;9.118;2022-12-24T13:22:36;2.40;;;1.70;;
8066;SDS011;4076;48.076;9.118;2022-12-24T13:25:02;3.70;;;1.93;;
8066;SDS011;4076;48.076;9.118;2022-12-24T13:27:29;2.53;;;1.60;;
8066;SDS011;4076;48.076;9.118;2022-12-24T13:30:00;2.10;;;1.70;;
8066;SDS011;4076;48.076;9.118;2022-12-24T13:32:49;5.30;;;2.00;;
8066;SDS011;4076;48.076;9.118;2022-12-24T13:37:45;2.83;;;1.73;;
8066;SDS011;4076;48.076;9.118;2022-12-24T13:40:15;2.07;;;1.37;;
8066;SDS011;4076;48.076;9.118;2022-12-24T13:48:00;3.17;;;1.50;;
8066;SDS011;4076;48.076;9.118;2022-12-24T13:50:47;5.20;;;1.40;;
8066;SDS011;4076;48.076;9.118;2022-12-24T13:58:48;2.77;;;1.63;;
8066;SDS011;4076;48.076;9.118;2022-12-24T14:01:34;2.83;;;1.87;;
8066;SDS011;4076;48.076;9.118;2022-12-24T14:04:02;2.07;;;1.47;;
8066;SDS011;4076;48.076;9.118;2022-12-24T14:06:32;2.40;;;1.73;;
8066;SDS011;4076;48.076;9.118;2022-12-24T14:09:07;2.77;;;2.10;;
8066;SDS011;4076;48.076;9.118;2022-12-24T14:14:28;8.10;;;3.53;;
8066;SDS011;4076;48.076;9.118;2022-12-24T14:16:54;4.13;;;3.10;;
8066;SDS011;4076;48.076;9.118;2022-12-24T14:19:37;3.40;;;1.80;;
8066;SDS011;4076;48.076;9.118;2022-12-24T14:27:43;7.53;;;6.00;;
8066;SDS011;4076;48.076;9.118;2022-12-24T14:32:42;2.73;;;2.33;;
8066;SDS011;4076;48.076;9.118;2022-12-24T14:35:16;3.40;;;2.70;;
8066;SDS011;4076;48.076;9.118;2022-12-24T14:37:46;1.90;;;1.70;;
8066;SDS011;4076;48.076;9.118;2022-12-24T14:40:33;2.90;;;2.53;;
8066;SDS011;4076;48.076;9.118;2022-12-24T14:48:46;3.27;;;1.90;;
8066;SDS011;4076;48.076;9.118;2022-12-24T14:53:53;4.13;;;3.00;;
8066;SDS011;4076;48.076;9.118;2022-12-24T14:56:30;4.33;;;3.03;;
8066;SDS011;4076;48.076;9.118;2022-12-24T14:58:56;5.80;;;2.77;;
8066;SDS011;4076;48.076;9.118;2022-12-24T15:01:29;3.07;;;1.63;;
8066;SDS011;4076;48.076;9.118;2022-12-24T15:06:40;4.87;;;2.77;;
8066;SDS011;4076;48.076;9.118;2022-12-24T15:11:52;5.57;;;2.60;;
8066;SDS011;4076;48.076;9.118;2022-12-24T15:14:19;2.50;;;1.90;;
8066;SDS011;4076;48.076;9.118;2022-12-24T15:17:09;3.27;;;1.80;;
8066;SDS011;4076;48.076;9.118;2022-12-24T15:19:36;3.20;;;2.40;;
8066;SDS011;4076;48.076;9.118;2022-12-24T15:22:25;2.63;;;1.67;;
8066;SDS011;4076;48.076;9.118;2022-12-24T15:24:53;2.87;;;2.00;;
8066;SDS011;4076;48.076;9.118;2022-12-24T15:27:20;3.80;;;2.07;;
8066;SDS011;4076;48.076;9.118;2022-12-24T15:29:50;2.47;;;2.00;;
8066;SDS011;4076;48.076;9.118;2022-12-24T15:32:17;6.30;;;2.47;;
8066;SDS011;4076;48.076;9.118;2022-12-24T15:34:53;4.00;;;2.10;;
8066;SDS011;4076;48.076;9.118;2022-12-24T15:37:26;3.83;;;1.80;;
8066;SDS011;4076;48.076;9.118;2022-12-24T15:39:56;3.80;;;1.50;;
8066;SDS011;4076;48.076;9.118;2022-12-24T15:42:32;2.47;;;1.50;;
8066;SDS011;4076;48.076;9.118;2022-12-24T15:45:02;2.00;;;1.33;;
8066;SDS011;4076;48.076;9.118;2022-12-24T15:47:54;4.30;;;2.57;;
8066;SDS011;4076;48.076;9.118;2022-12-24T15:53:04;5.50;;;2.90;;
8066;SDS011;4076;48.076;9.118;2022-12-24T15:55:33;3.60;;;2.50;;
8066;SDS011;4076;48.076;9.118;2022-12-24T15:58:23;2.87;;;2.10;;
8066;SDS011;4076;48.076;9.118;2022-12-24T16:04:09;3.33;;;2.50;;
8066;SDS011;4076;48.076;9.118;2022-12-24T16:09:37;5.40;;;3.40;;
8066;SDS011;4076;48.076;9.118;2022-12-24T16:12:11;4.00;;;3.17;;
8066;SDS011;4076;48.076;9.118;2022-12-24T16:14:46;5.50;;;3.60;;
8066;SDS011;4076;48.076;9.118;2022-12-24T16:17:24;7.43;;;6.57;;
8066;SDS011;4076;48.076;9.118;2022-12-24T16:19:53;5.10;;;4.40;;
8066;SDS011;4076;48.076;9.118;2022-12-24T16:22:24;4.23;;;3.83;;
8066;SDS011;4076;48.076;9.118;2022-12-24T16:25:41;3.60;;;3.30;;
8066;SDS011;4076;48.076;9.118;2022-12-24T16:27:42;5.27;;;4.07;;
8066;SDS011;4076;48.076;9.118;2022-12-24T16:30:10;2.83;;;2.53;;
8066;SDS011;4076;48.076;9.118;2022-12-24T16:32:36;3.53;;;2.97;;
8066;SDS011;4076;48.076;9.118;2022-12-24T16:35:04;4.37;;;3.03;;
8066;SDS011;4076;48.076;9.118;2022-12-24T16:37:32;2.57;;;2.30;;
8066;SDS011;4076;48.076;9.118;2022-12-24T16:39:59;3.70;;;2.90;;
8066;SDS011;4076;48.076;9.118;2022-12-24T16:42:24;9.63;;;3.63;;
8066;SDS011;4076;48.076;9.118;2022-12-24T16:45:09;4.23;;;3.20;;
8066;SDS011;4076;48.076;9.118;2022-12-24T16:47:35;3.20;;;2.70;;
8066;SDS011;4076;48.076;9.118;2022-12-24T16:50:02;3.10;;;2.53;;
8066;SDS011;4076;48.076;9.118;2022-12-24T16:52:31;3.03;;;2.23;;
8066;SDS011;4076;48.076;9.118;2022-12-24T16:55:00;2.60;;;2.27;;
8066;SDS011;4076;48.076;9.118;2022-12-24T16:57:26;2.80;;;1.73;;
8066;SDS011;4076;48.076;9.118;2022-12-24T16:59:52;3.70;;;2.40;;
8066;SDS011;4076;48.076;9.118;2022-12-24T17:02:18;4.30;;;3.63;;
8066;SDS011;4076;48.076;9.118;2022-12-24T17:04:46;5.73;;;4.57;;
8066;SDS011;4076;48.076;9.118;2022-12-24T17:07:12;5.20;;;4.00;;
8066;SDS011;4076;48.076;9.118;2022-12-24T17:09:39;4.00;;;2.97;;
8066;SDS011;4076;48.076;9.118;2022-12-24T17:12:05;4.37;;;3.07;;
8066;SDS011;4076;48.076;9.118;2022-12-24T17:14:31;4.17;;;2.80;;
8066;SDS011;4076;48.076;9.118;2022-12-24T17:16:56;2.77;;;2.27;;
8066;SDS011;4076;48.076;9.118;2022-12-24T17:19:22;3.60;;;2.63;;
8066;SDS011;4076;48.076;9.118;2022-12-24T17:21:48;4.07;;;3.60;;
8066;SDS011;4076;48.076;9.118;2022-12-24T17:24:13;4.87;;;4.40;;
8066;SDS011;4076;48.076;9.118;2022-12-24T17:26:39;5.17;;;4.03;;
8066;SDS011;4076;48.076;9.118;2022-12-24T17:29:06;4.63;;;3.80;;
8066;SDS011;4076;48.076;9.118;2022-12-24T17:31:32;3.63;;;3.10;;
8066;SDS011;4076;48.076;9.118;2022-12-24T17:33:57;3.27;;;2.60;;